Time;durP1;ratioP1;P1;durP2;ratioP2;P2;SDS_P1;SDS_P2;PMS_P1;PMS_P2;Temp;Humidity;BMP_temperature;BMP_pressure;BME280_temperature;BME280_humidity;BME280_pressure;Samples;Min_cycle;Max_cycle;Signal;HPM_P1;HPM_P2
2021/04/10 00:01:08;;;;;;;5.03;2.22;;;11.20;73.90;;;;;;5081664;28;20224;-71
2021/04/10 00:03:35;;;;;;;4.72;2.35;;;11.20;73.90;;;;;;5081790;28;20659;-71
2021/04/10 00:06:01;;;;;;;5.22;2.45;;;11.20;73.80;;;;;;5081260;28;20207;-71
2021/04/10 00:08:27;;;;;;;3.27;2.43;;;11.20;74.00;;;;;;5081007;28;20231;-71
2021/04/10 00:10:54;;;;;;;4.20;2.40;;;11.10;73.70;;;;;;5081881;28;20483;-71
2021/04/10 00:13:21;;;;;;;4.90;2.22;;;11.10;74.00;;;;;;5081552;28;20224;-71
2021/04/10 00:15:48;;;;;;;3.80;2.63;;;11.10;73.90;;;;;;5081320;28;20681;-71
2021/04/10 00:18:14;;;;;;;5.30;2.10;;;11.00;74.00;;;;;;5081593;28;20739;-71
2021/04/10 00:20:41;;;;;;;3.83;2.30;;;11.00;74.30;;;;;;5086036;28;20207;-70
2021/04/10 00:23:07;;;;;;;7.80;2.38;;;11.00;74.00;;;;;;5085761;28;20203;-71
2021/04/10 00:25:33;;;;;;;5.20;2.08;;;11.00;73.90;;;;;;5085641;28;20207;-70
2021/04/10 00:28:00;;;;;;;3.95;2.35;;;11.00;73.80;;;;;;5085157;28;20235;-72
2021/04/10 00:30:27;;;;;;;2.53;2.10;;;11.00;73.90;;;;;;5085691;28;20690;-72
2021/04/10 00:32:53;;;;;;;3.83;2.60;;;11.00;73.70;;;;;;5086172;28;20268;-72
2021/04/10 00:35:20;;;;;;;5.35;3.30;;;11.00;74.00;;;;;;5083159;28;20706;-71
2021/04/10 00:37:46;;;;;;;3.22;2.15;;;10.90;73.80;;;;;;5085118;28;20223;-71
2021/04/10 00:40:13;;;;;;;3.97;2.10;;;10.90;74.10;;;;;;5085535;28;20211;-71
2021/04/10 00:42:40;;;;;;;5.40;2.33;;;10.90;73.90;;;;;;5085406;28;20666;-71
2021/04/10 00:45:08;;;;;;;3.10;2.45;;;10.90;74.10;;;;;;5085007;28;20625;-71
2021/04/10 00:47:36;;;;;;;3.97;2.13;;;11.00;74.10;;;;;;5085629;28;20222;-71
2021/04/10 00:50:03;;;;;;;3.55;2.30;;;11.00;73.80;;;;;;5085064;28;20306;-72
2021/04/10 00:52:30;;;;;;;2.78;2.35;;;11.00;73.70;;;;;;5085327;28;20215;-70
2021/04/10 00:54:57;;;;;;;6.97;2.50;;;11.00;74.10;;;;;;5090353;28;20222;-71
2021/04/10 00:57:24;;;;;;;5.60;2.33;;;11.00;74.10;;;;;;5093114;28;20203;-71
2021/04/10 00:59:50;;;;;;;3.00;1.90;;;11.10;73.90;;;;;;5091965;28;20671;-71
2021/04/10 01:02:17;;;;;;;4.38;2.63;;;11.10;74.00;;;;;;5093125;28;20196;-71
2021/04/10 01:04:44;;;;;;;2.78;1.90;;;11.10;73.90;;;;;;5092982;28;20563;-71
2021/04/10 01:07:10;;;;;;;7.75;2.58;;;11.10;74.60;;;;;;5093127;28;20410;-71
2021/04/10 01:09:37;;;;;;;2.55;2.25;;;11.10;74.20;;;;;;5093003;28;20253;-71
2021/04/10 01:12:13;;;;;;;3.20;2.30;;;11.00;73.90;;;;;;5093101;28;20207;-71
2021/04/10 01:14:54;;;;;;;5.72;2.60;;;11.00;74.10;;;;;;5093030;28;20233;-71
2021/04/10 01:17:27;;;;;;;4.35;3.05;;;10.90;74.30;;;;;;5093328;28;20700;-70
2021/04/10 01:20:24;;;;;;;2.90;2.08;;;11.00;74.70;;;;;;5092176;28;20196;-71
2021/04/10 01:23:16;;;;;;;3.40;1.88;;;11.00;74.60;;;;;;5093020;28;20575;-70
2021/04/10 01:25:56;;;;;;;4.93;2.70;;;11.00;74.60;;;;;;5092723;28;20200;-70
2021/04/10 01:28:46;;;;;;;2.92;1.73;;;11.00;74.50;;;;;;5092113;28;20736;-70
2021/04/10 01:31:14;;;;;;;2.80;2.03;;;11.00;74.80;;;;;;5093125;28;20204;-70
2021/04/10 01:33:44;;;;;;;2.88;1.95;;;11.00;75.20;;;;;;5092933;28;20239;-71
2021/04/10 01:36:14;;;;;;;5.07;2.17;;;11.00;74.90;;;;;;5091834;28;20257;-70
2021/04/10 01:38:44;;;;;;;3.90;2.15;;;11.00;75.10;;;;;;5091055;28;20232;-70
2021/04/10 01:41:12;;;;;;;2.72;1.80;;;11.00;75.40;;;;;;5091966;28;20222;-71
2021/04/10 01:43:41;;;;;;;2.83;2.13;;;11.00;75.50;;;;;;5091714;28;20192;-71
2021/04/10 01:46:08;;;;;;;2.65;2.00;;;11.00;75.50;;;;;;5091905;28;20316;-71
2021/04/10 01:48:36;;;;;;;3.72;2.38;;;10.90;75.70;;;;;;5090996;28;20220;-70
2021/04/10 01:51:03;;;;;;;2.60;2.40;;;10.90;76.00;;;;;;5091753;28;20204;-71
2021/04/10 01:53:30;;;;;;;2.45;2.00;;;10.90;75.80;;;;;;5092095;28;20235;-71
2021/04/10 01:55:59;;;;;;;3.70;2.20;;;10.90;75.90;;;;;;5091557;28;20260;-70
2021/04/10 01:58:26;;;;;;;2.10;1.90;;;10.90;76.40;;;;;;5091258;28;20224;-71
2021/04/10 02:00:54;;;;;;;4.35;2.03;;;10.80;76.50;;;;;;5092062;28;20204;-71
2021/04/10 02:03:21;;;;;;;4.72;2.33;;;10.80;76.50;;;;;;5092218;28;20215;-71
2021/04/10 02:05:49;;;;;;;2.45;1.92;;;10.90;76.80;;;;;;5091709;28;20345;-71
2021/04/10 02:08:18;;;;;;;2.85;1.95;;;10.90;76.50;;;;;;5090853;28;20227;-71
2021/04/10 02:10:45;;;;;;;2.58;2.08;;;10.90;76.80;;;;;;5091881;28;20252;-71
2021/04/10 02:13:13;;;;;;;2.80;2.05;;;10.90;76.60;;;;;;5091737;28;20223;-71
2021/04/10 02:15:40;;;;;;;2.97;2.00;;;10.80;76.80;;;;;;5091484;28;20223;-71
2021/04/10 02:18:08;;;;;;;2.72;1.52;;;10.80;76.70;;;;;;5090377;28;20230;-71
2021/04/10 02:20:34;;;;;;;2.40;2.00;;;10.80;76.70;;;;;;5091635;28;20547;-71
2021/04/10 02:23:03;;;;;;;1.80;1.70;;;10.90;76.80;;;;;;5091663;28;20212;-71
2021/04/10 02:25:29;;;;;;;3.72;2.00;;;10.90;77.20;;;;;;5091483;28;20750;-71
2021/04/10 02:27:56;;;;;;;6.10;2.08;;;10.90;77.10;;;;;;5090093;28;20227;-72
2021/04/10 02:30:23;;;;;;;3.50;2.05;;;10.90;77.50;;;;;;5091347;28;20828;-71
2021/04/10 02:32:55;;;;;;;2.30;1.73;;;10.80;77.20;;;;;;5091294;28;20223;-71
2021/04/10 02:35:27;;;;;;;3.97;1.80;;;10.80;77.60;;;;;;5091571;28;20805;-71
2021/04/10 02:37:54;;;;;;;3.97;2.03;;;10.90;77.70;;;;;;5090659;28;20220;-71
2021/04/10 02:40:24;;;;;;;3.42;1.50;;;10.80;77.70;;;;;;5090670;28;20957;-71
2021/04/10 02:42:50;;;;;;;2.83;1.70;;;10.90;78.00;;;;;;5090507;28;20199;-71
2021/04/10 02:45:24;;;;;;;2.05;1.63;;;10.90;78.10;;;;;;5090916;28;20199;-71
2021/04/10 02:47:51;;;;;;;6.97;2.40;;;10.80;78.20;;;;;;5090776;28;20230;-71
2021/04/10 02:50:19;;;;;;;3.13;1.63;;;10.90;78.30;;;;;;5090851;28;20204;-71
2021/04/10 02:52:49;;;;;;;2.88;1.92;;;10.90;78.10;;;;;;5090555;28;20212;-71
2021/04/10 02:55:20;;;;;;;3.35;2.20;;;10.90;78.30;;;;;;5090784;28;20279;-70
2021/04/10 02:57:48;;;;;;;2.58;1.85;;;10.90;78.30;;;;;;5090448;28;20227;-71
2021/04/10 03:00:18;;;;;;;2.30;1.50;;;10.90;78.40;;;;;;5090294;28;20203;-71
2021/04/10 03:02:45;;;;;;;3.45;1.98;;;10.90;78.30;;;;;;5090852;28;20199;-70
2021/04/10 03:05:12;;;;;;;3.00;1.90;;;10.90;78.50;;;;;;5090277;28;20298;-71
2021/04/10 03:07:45;;;;;;;4.13;1.77;;;10.90;78.60;;;;;;5089870;28;20265;-71
2021/04/10 03:10:14;;;;;;;2.80;1.70;;;10.90;78.60;;;;;;5089565;28;20203;-71
2021/04/10 03:12:41;;;;;;;2.65;1.70;;;10.90;78.90;;;;;;5090338;28;20215;-70
2021/04/10 03:15:11;;;;;;;2.72;1.52;;;10.90;78.70;;;;;;5090683;28;20211;-71
2021/04/10 03:17:40;;;;;;;1.77;1.60;;;10.90;78.90;;;;;;5090102;28;20220;-71
2021/04/10 03:20:11;;;;;;;3.15;1.52;;;10.90;79.20;;;;;;5089613;28;20210;-71
2021/04/10 03:22:37;;;;;;;2.42;1.90;;;10.90;79.40;;;;;;5089565;28;20207;-71
2021/04/10 03:25:05;;;;;;;6.35;2.75;;;10.90;79.60;;;;;;5089324;28;20295;-71
2021/04/10 03:27:32;;;;;;;2.67;1.90;;;10.90;79.90;;;;;;5089374;28;20211;-71
2021/04/10 03:29:59;;;;;;;3.97;1.83;;;10.90;80.70;;;;;;5089852;28;20199;-71
2021/04/10 03:32:27;;;;;;;2.13;1.60;;;10.90;80.20;;;;;;5090505;28;20215;-71
2021/04/10 03:34:54;;;;;;;2.33;1.85;;;10.90;80.40;;;;;;5090014;28;20203;-70
2021/04/10 03:37:21;;;;;;;3.17;1.67;;;10.90;80.70;;;;;;5090062;28;20226;-71
2021/04/10 03:39:47;;;;;;;3.60;2.00;;;10.80;81.00;;;;;;5089787;28;20208;-71
2021/04/10 03:42:15;;;;;;;3.22;1.60;;;10.90;81.20;;;;;;5089626;28;20213;-71
2021/04/10 03:44:42;;;;;;;3.67;1.30;;;10.90;81.40;;;;;;5089585;28;20313;-71
2021/04/10 03:47:08;;;;;;;2.42;1.92;;;10.90;81.40;;;;;;5089532;28;20572;-71
2021/04/10 03:49:34;;;;;;;2.20;1.80;;;10.90;81.40;;;;;;5089184;28;20219;-70
2021/04/10 03:52:00;;;;;;;5.78;1.90;;;10.90;81.60;;;;;;5089481;28;20200;-71
2021/04/10 03:54:26;;;;;;;2.28;1.55;;;10.90;82.10;;;;;;5088256;28;20568;-70
2021/04/10 03:56:53;;;;;;;2.15;1.63;;;10.80;82.10;;;;;;5089917;28;20204;-70
2021/04/10 03:59:19;;;;;;;2.00;1.73;;;10.90;82.40;;;;;;5089549;28;20220;-71
2021/04/10 04:01:46;;;;;;;4.53;2.03;;;10.80;82.50;;;;;;5090450;28;20200;-69
2021/04/10 04:04:12;;;;;;;3.70;1.92;;;10.80;82.40;;;;;;5090386;28;20204;-72
2021/04/10 04:06:38;;;;;;;1.70;1.60;;;10.80;82.70;;;;;;5089490;28;20207;-72
2021/04/10 04:09:05;;;;;;;4.30;3.28;;;10.80;82.60;;;;;;5088324;28;21092;-72
2021/04/10 04:11:31;;;;;;;3.65;1.85;;;10.80;82.80;;;;;;5089840;28;20204;-72
2021/04/10 04:13:57;;;;;;;2.35;1.80;;;10.80;84.30;;;;;;5089414;28;20288;-71
2021/04/10 04:16:23;;;;;;;2.10;1.50;;;10.80;85.00;;;;;;5089961;28;20215;-72
2021/04/10 04:18:50;;;;;;;3.05;1.70;;;10.70;86.10;;;;;;5088746;28;20220;-72
2021/04/10 04:21:17;;;;;;;2.22;1.77;;;10.60;86.10;;;;;;5090100;28;20207;-72
2021/04/10 04:23:43;;;;;;;2.28;1.65;;;10.50;86.40;;;;;;5089833;28;20200;-72
2021/04/10 04:26:09;;;;;;;2.47;1.50;;;10.40;86.30;;;;;;5089170;28;20203;-72
2021/04/10 04:28:35;;;;;;;2.22;1.75;;;10.40;86.40;;;;;;5088666;28;20227;-72
2021/04/10 04:31:02;;;;;;;2.60;1.83;;;10.40;85.90;;;;;;5089559;28;20206;-71
2021/04/10 04:33:28;;;;;;;2.10;1.80;;;10.40;85.60;;;;;;5090070;28;20227;-71
2021/04/10 04:35:55;;;;;;;3.45;1.80;;;10.50;85.50;;;;;;5089181;28;20671;-71
2021/04/10 04:38:21;;;;;;;2.90;2.50;;;10.40;85.30;;;;;;5088927;28;20737;-72
2021/04/10 04:40:47;;;;;;;2.38;1.40;;;10.40;84.90;;;;;;5089415;28;20245;-71
2021/04/10 04:43:14;;;;;;;6.32;1.67;;;10.40;85.30;;;;;;5089139;28;20211;-71
2021/04/10 04:45:40;;;;;;;1.90;1.65;;;10.40;84.70;;;;;;5089779;28;20214;-72
2021/04/10 04:48:07;;;;;;;4.50;1.60;;;10.40;84.50;;;;;;5088580;28;20249;-71
2021/04/10 04:50:33;;;;;;;5.43;1.50;;;10.30;84.80;;;;;;5089636;28;20203;-71
2021/04/10 04:53:00;;;;;;;3.67;2.10;;;10.30;84.80;;;;;;5089296;28;20222;-71
2021/04/10 04:55:26;;;;;;;2.13;1.60;;;10.20;85.00;;;;;;5089490;28;20738;-72
2021/04/10 04:57:52;;;;;;;2.97;1.45;;;10.20;85.90;;;;;;5084241;22;20229;-68
2021/04/10 05:00:20;;;;;;;4.97;1.63;;;10.10;86.50;;;;;;5047269;28;20580;-68
2021/04/10 05:02:46;;;;;;;1.65;1.55;;;10.10;88.50;;;;;;5048109;28;20656;-68
2021/04/10 05:05:13;;;;;;;2.45;1.75;;;9.90;90.40;;;;;;5049829;28;20309;-68
2021/04/10 05:07:39;;;;;;;3.00;1.83;;;9.90;91.40;;;;;;5050848;28;20593;-69
2021/04/10 05:10:08;;;;;;;4.57;1.88;;;9.70;92.60;;;;;;5051272;28;20204;-69
2021/04/10 05:12:35;;;;;;;4.75;2.22;;;9.50;93.10;;;;;;5051470;28;20225;-69
2021/04/10 05:15:01;;;;;;;1.73;1.63;;;9.40;93.50;;;;;;5051675;28;20219;-68
2021/04/10 05:17:27;;;;;;;2.47;1.63;;;9.40;93.70;;;;;;5051060;28;20699;-69
2021/04/10 05:19:53;;;;;;;4.82;2.92;;;9.30;93.80;;;;;;5050961;28;20205;-69
2021/04/10 05:22:19;;;;;;;2.13;1.80;;;9.30;93.80;;;;;;5051206;28;20556;-68
2021/04/10 05:24:46;;;;;;;3.67;1.80;;;9.30;93.70;;;;;;5051225;28;20216;-69
2021/04/10 05:27:13;;;;;;;1.65;1.55;;;9.30;93.40;;;;;;5051378;28;20204;-69
2021/04/10 05:29:39;;;;;;;2.78;2.10;;;9.30;93.20;;;;;;5050563;28;20290;-68
2021/04/10 05:32:06;;;;;;;2.65;1.50;;;9.30;93.20;;;;;;5051413;28;20687;-68
2021/04/10 05:34:32;;;;;;;3.00;1.70;;;9.30;93.00;;;;;;5051055;28;20589;-68
2021/04/10 05:36:58;;;;;;;2.40;1.95;;;9.30;93.00;;;;;;5050693;28;20676;-69
2021/04/10 05:39:25;;;;;;;3.25;2.20;;;9.30;92.90;;;;;;5050635;28;20297;-68
2021/04/10 05:41:52;;;;;;;2.45;1.73;;;9.30;93.00;;;;;;5050844;28;20691;-68
2021/04/10 05:44:20;;;;;;;3.33;1.80;;;9.40;93.00;;;;;;5050780;28;20614;-69
2021/04/10 05:46:46;;;;;;;3.20;1.70;;;9.40;92.70;;;;;;5050808;28;20205;-68
2021/04/10 05:49:12;;;;;;;2.70;1.73;;;9.50;92.50;;;;;;5050260;28;20336;-68
2021/04/10 05:51:38;;;;;;;2.45;2.00;;;9.50;92.20;;;;;;5050642;28;20213;-68
2021/04/10 05:54:05;;;;;;;2.10;1.60;;;9.50;92.40;;;;;;5050671;28;20287;-68
2021/04/10 05:56:31;;;;;;;3.08;1.90;;;9.50;92.40;;;;;;5050292;28;20208;-68
2021/04/10 05:58:57;;;;;;;2.67;1.85;;;9.50;92.30;;;;;;5050150;28;20229;-69
2021/04/10 06:01:27;;;;;;;2.13;1.50;;;9.50;92.00;;;;;;5050353;28;20201;-68
2021/04/10 06:03:55;;;;;;;3.75;1.88;;;9.50;91.90;;;;;;5050789;28;20725;-69
2021/04/10 06:06:21;;;;;;;2.38;1.77;;;9.50;92.10;;;;;;5050237;28;20209;-68
2021/04/10 06:08:47;;;;;;;2.15;1.40;;;9.60;92.30;;;;;;5049935;28;20217;-69
2021/04/10 06:11:13;;;;;;;3.30;1.80;;;9.70;91.90;;;;;;5050700;28;20205;-69
2021/04/10 06:13:40;;;;;;;3.38;1.90;;;9.80;91.80;;;;;;5050077;28;20232;-68
2021/04/10 06:16:06;;;;;;;4.63;1.73;;;9.80;91.80;;;;;;5049558;28;20197;-69
2021/04/10 06:18:34;;;;;;;3.45;1.67;;;9.80;91.80;;;;;;5049309;28;20217;-69
2021/04/10 06:21:00;;;;;;;1.92;1.58;;;9.80;91.90;;;;;;5050426;28;20201;-68
2021/04/10 06:23:27;;;;;;;1.80;1.48;;;9.90;91.80;;;;;;5049947;28;20235;-69
2021/04/10 06:25:53;;;;;;;2.58;1.80;;;9.90;91.80;;;;;;5050061;28;20212;-69
2021/04/10 06:28:19;;;;;;;4.35;1.70;;;10.00;91.30;;;;;;5049506;28;20225;-69
2021/04/10 06:30:46;;;;;;;2.33;1.70;;;10.00;91.30;;;;;;5050119;28;20212;-68
2021/04/10 06:33:12;;;;;;;3.03;1.35;;;10.00;91.40;;;;;;5050118;28;20192;-68
2021/04/10 06:35:39;;;;;;;4.13;2.00;;;10.00;91.30;;;;;;5049671;28;20205;-67
2021/04/10 06:38:05;;;;;;;1.83;1.40;;;10.10;91.40;;;;;;5049291;28;20790;-67
2021/04/10 06:40:32;;;;;;;3.08;1.70;;;10.10;91.30;;;;;;5049942;28;20201;-67
2021/04/10 06:43:01;;;;;;;3.65;1.90;;;10.10;91.50;;;;;;5049474;28;20699;-67
2021/04/10 06:45:27;;;;;;;3.35;1.77;;;10.10;91.40;;;;;;5049237;28;20208;-67
2021/04/10 06:47:54;;;;;;;2.65;1.40;;;10.10;91.60;;;;;;5049401;28;20228;-67
2021/04/10 06:50:21;;;;;;;6.75;2.13;;;10.10;91.40;;;;;;5049208;28;20295;-67
2021/04/10 06:52:51;;;;;;;3.38;1.65;;;10.00;91.70;;;;;;5049472;28;20221;-68
2021/04/10 06:55:19;;;;;;;3.30;1.98;;;10.00;91.80;;;;;;5052280;28;20197;-68
2021/04/10 06:57:55;;;;;;;1.90;1.55;;;10.00;91.90;;;;;;5069036;28;20900;-67
2021/04/10 07:00:22;;;;;;;2.70;1.80;;;10.00;92.10;;;;;;5069222;28;20345;-67
2021/04/10 07:02:49;;;;;;;1.88;1.70;;;10.00;92.20;;;;;;5069537;28;20201;-67
2021/04/10 07:05:16;;;;;;;4.03;2.15;;;10.00;92.50;;;;;;5069053;28;20769;-67
2021/04/10 07:07:43;;;;;;;2.05;1.70;;;9.90;92.70;;;;;;5068765;28;20224;-68
2021/04/10 07:10:12;;;;;;;2.78;1.55;;;9.90;92.80;;;;;;5069068;28;20294;-68
2021/04/10 07:12:39;;;;;;;2.13;1.77;;;9.90;93.10;;;;;;5068744;28;20694;-68
2021/04/10 07:15:06;;;;;;;1.48;1.15;;;9.90;93.10;;;;;;5068736;28;20213;-68
2021/04/10 07:17:33;;;;;;;2.25;1.52;;;9.90;92.90;;;;;;5068568;28;20205;-68
2021/04/10 07:19:59;;;;;;;1.75;1.55;;;10.00;92.30;;;;;;5068160;28;20575;-68
2021/04/10 07:22:26;;;;;;;3.78;1.83;;;10.10;92.10;;;;;;5068705;28;20201;-67
2021/04/10 07:24:54;;;;;;;2.35;1.50;;;10.20;92.10;;;;;;5068946;28;20200;-68
2021/04/10 07:27:25;;;;;;;2.85;1.75;;;10.30;92.00;;;;;;5067981;28;20212;-68
2021/04/10 07:29:52;;;;;;;1.63;1.52;;;10.30;91.90;;;;;;5068612;28;20266;-68
2021/04/10 07:32:32;;;;;;;3.05;1.77;;;10.30;92.00;;;;;;5068738;28;20690;-69
2021/04/10 07:34:59;;;;;;;2.50;1.65;;;10.30;92.00;;;;;;5068913;28;20614;-68
2021/04/10 07:37:34;;;;;;;3.38;2.65;;;10.30;92.10;;;;;;5068698;28;20200;-68
2021/04/10 07:40:00;;;;;;;3.67;2.28;;;10.30;92.20;;;;;;5068501;28;20229;-68
2021/04/10 07:42:29;;;;;;;1.67;1.58;;;10.30;92.00;;;;;;5068609;28;20212;-68
2021/04/10 07:44:56;;;;;;;1.50;1.40;;;10.30;92.20;;;;;;5068450;28;20273;-68
2021/04/10 07:47:34;;;;;;;3.97;2.25;;;10.20;92.10;;;;;;5068391;28;20210;-68
2021/04/10 07:50:17;;;;;;;4.20;2.20;;;10.10;92.50;;;;;;5068045;28;20208;-69
2021/04/10 07:52:43;;;;;;;2.92;1.95;;;10.10;92.70;;;;;;5068470;28;20215;-68
2021/04/10 07:55:37;;;;;;;3.70;1.92;;;10.00;93.40;;;;;;5069420;28;20235;-67
2021/04/10 07:58:22;;;;;;;4.50;1.90;;;10.00;93.60;;;;;;5067773;28;20723;-69
2021/04/10 08:00:49;;;;;;;2.20;1.35;;;9.90;94.90;;;;;;5069011;28;20211;-68
2021/04/10 08:03:29;;;;;;;2.55;1.77;;;9.90;95.10;;;;;;5068287;28;20224;-67
2021/04/10 08:05:55;;;;;;;1.90;1.60;;;9.80;95.30;;;;;;5068697;28;20698;-68
2021/04/10 08:08:23;;;;;;;3.25;2.13;;;9.90;95.90;;;;;;5067756;28;20228;-68
2021/04/10 08:10:58;;;;;;;5.95;1.73;;;9.90;96.10;;;;;;5068521;28;20205;-69
2021/04/10 08:13:25;;;;;;;2.65;1.80;;;9.90;95.80;;;;;;5068479;28;20258;-69
2021/04/10 08:16:12;;;;;;;4.13;2.25;;;10.00;95.50;;;;;;5068458;28;20201;-69
2021/04/10 08:18:44;;;;;;;2.47;1.50;;;10.10;95.30;;;;;;5029848;28;20229;-68
2021/04/10 08:21:12;;;;;;;2.53;1.70;;;10.00;94.80;;;;;;5028895;28;20236;-69
2021/04/10 08:23:38;;;;;;;4.40;1.70;;;10.10;95.00;;;;;;5028479;28;20279;-69
2021/04/10 08:26:04;;;;;;;2.38;1.80;;;10.20;94.60;;;;;;5028495;28;20202;-68
2021/04/10 08:28:32;;;;;;;2.75;1.73;;;10.30;94.40;;;;;;5036068;28;20232;-69
2021/04/10 08:30:58;;;;;;;2.90;1.30;;;10.40;94.20;;;;;;5047569;28;20201;-69
2021/04/10 08:33:25;;;;;;;2.50;2.00;;;10.40;94.20;;;;;;5044987;28;20217;-69
2021/04/10 08:35:54;;;;;;;4.57;1.92;;;10.50;94.20;;;;;;5047226;28;20201;-68
2021/04/10 08:38:23;;;;;;;2.72;1.52;;;10.60;93.80;;;;;;5046274;28;20588;-68
2021/04/10 08:40:52;;;;;;;2.90;1.60;;;10.60;93.40;;;;;;5047847;28;20577;-68
2021/04/10 08:43:19;;;;;;;3.50;1.98;;;10.50;94.00;;;;;;5051520;28;20565;-69
2021/04/10 08:45:51;;;;;;;2.05;1.85;;;10.60;94.10;;;;;;5051712;28;20258;-68
2021/04/10 08:48:20;;;;;;;1.38;1.27;;;10.70;93.70;;;;;;5049652;28;20217;-67
2021/04/10 08:50:48;;;;;;;2.67;1.60;;;10.70;93.90;;;;;;5051584;28;20201;-69
2021/04/10 08:53:19;;;;;;;3.20;1.70;;;10.70;93.60;;;;;;5051436;28;20220;-68
2021/04/10 08:55:46;;;;;;;3.63;2.65;;;10.80;93.60;;;;;;5051035;28;20208;-69
2021/04/10 08:58:20;;;;;;;2.00;1.80;;;10.90;93.50;;;;;;5049995;28;20233;-69
2021/04/10 09:00:54;;;;;;;2.78;1.80;;;10.80;93.10;;;;;;5051162;28;20231;-68
2021/04/10 09:03:20;;;;;;;1.45;1.30;;;10.80;93.20;;;;;;5045455;28;20600;-68
2021/04/10 09:05:49;;;;;;;2.90;1.58;;;10.90;92.40;;;;;;5051331;28;20209;-68
2021/04/10 09:08:26;;;;;;;1.95;1.50;;;10.90;92.70;;;;;;5049462;28;20650;-69
2021/04/10 09:11:00;;;;;;;4.55;1.58;;;10.90;92.50;;;;;;5051230;28;20209;-69
2021/04/10 09:13:46;;;;;;;2.50;1.30;;;11.00;92.50;;;;;;5050555;28;20382;-69
2021/04/10 09:16:25;;;;;;;1.77;1.55;;;11.10;92.20;;;;;;5046484;28;20197;-69
2021/04/10 09:18:52;;;;;;;2.63;1.60;;;11.00;91.70;;;;;;5050318;28;20224;-69
2021/04/10 09:21:24;;;;;;;2.00;1.42;;;11.10;91.80;;;;;;5050214;28;20577;-71
2021/04/10 09:23:50;;;;;;;1.75;1.30;;;11.20;92.10;;;;;;5051302;28;20197;-72
2021/04/10 09:26:19;;;;;;;2.20;1.80;;;11.30;91.70;;;;;;5050647;28;20201;-71
2021/04/10 09:29:16;;;;;;;1.80;1.35;;;11.20;91.60;;;;;;5049724;28;20309;-72
2021/04/10 09:31:46;;;;;;;1.88;1.45;;;11.10;91.20;;;;;;5050642;28;20201;-69
2021/04/10 09:35:02;;;;;;;2.28;1.55;;;11.20;91.60;;;;;;5050131;28;20259;-70
2021/04/10 09:38:01;;;;;;;1.52;1.33;;;11.30;91.30;;;;;;5049995;28;20899;-70
2021/04/10 09:40:50;;;;;;;2.30;1.77;;;11.50;91.30;;;;;;5050465;28;20208;-69
2021/04/10 09:43:19;;;;;;;2.35;1.50;;;11.50;90.80;;;;;;5051135;28;20198;-71
2021/04/10 09:45:47;;;;;;;2.00;1.60;;;11.60;91.40;;;;;;5051188;28;20552;-71
2021/04/10 09:48:22;;;;;;;1.58;1.48;;;11.70;90.40;;;;;;5050174;28;20308;-71
2021/04/10 09:51:16;;;;;;;2.00;1.50;;;11.80;90.30;;;;;;5050836;28;20576;-70
2021/04/10 09:53:51;;;;;;;2.30;1.70;;;11.80;90.20;;;;;;5002991;28;20244;-70
2021/04/10 09:56:19;;;;;;;5.10;1.60;;;11.70;90.20;;;;;;5050533;28;20597;-71
2021/04/10 09:58:55;;;;;;;2.20;1.85;;;11.70;90.50;;;;;;5049136;28;20320;-69
2021/04/10 10:01:29;;;;;;;1.92;1.55;;;11.70;91.20;;;;;;5049923;28;20270;-70
2021/04/10 10:03:56;;;;;;;1.80;1.40;;;11.70;90.30;;;;;;5043148;28;20196;-69
2021/04/10 10:06:34;;;;;;;1.60;1.40;;;11.80;90.70;;;;;;5048226;28;20463;-69
2021/04/10 10:09:00;;;;;;;2.35;1.40;;;11.80;90.30;;;;;;5048845;28;20479;-70
2021/04/10 10:11:27;;;;;;;2.50;1.90;;;11.70;90.50;;;;;;5049486;28;20211;-70
2021/04/10 10:13:55;;;;;;;1.30;1.10;;;11.70;90.60;;;;;;5046510;28;20232;-69
2021/04/10 10:16:29;;;;;;;2.85;1.80;;;11.70;90.20;;;;;;5049582;28;20208;-70
2021/04/10 10:18:56;;;;;;;1.53;1.27;;;11.80;90.70;;;;;;5048907;28;20527;-69
2021/04/10 10:21:24;;;;;;;2.00;1.77;;;11.90;90.60;;;;;;5047813;28;20455;-70
2021/04/10 10:23:52;;;;;;;2.40;1.93;;;12.10;90.60;;;;;;5049788;28;20517;-69
2021/04/10 10:26:20;;;;;;;1.75;1.40;;;12.20;89.60;;;;;;5049173;28;20517;-69
2021/04/10 10:28:48;;;;;;;2.07;1.40;;;12.20;89.00;;;;;;5049434;28;20225;-70
2021/04/10 10:31:16;;;;;;;1.67;1.40;;;12.10;89.10;;;;;;5050694;28;20463;-70
2021/04/10 10:33:43;;;;;;;2.43;1.40;;;12.00;89.10;;;;;;5050536;28;20491;-70
2021/04/10 10:36:12;;;;;;;2.25;1.55;;;12.00;89.80;;;;;;5050679;28;20570;-71
2021/04/10 10:38:41;;;;;;;2.78;1.52;;;11.90;88.90;;;;;;5050695;28;20229;-70
2021/04/10 10:41:08;;;;;;;3.87;1.40;;;11.70;89.40;;;;;;5051662;28;20201;-71
2021/04/10 10:43:35;;;;;;;1.55;1.20;;;11.70;89.40;;;;;;5049437;28;20463;-72
2021/04/10 10:46:04;;;;;;;2.63;1.60;;;11.80;89.90;;;;;;5049731;28;20205;-70
2021/04/10 10:48:32;;;;;;;2.40;1.50;;;11.80;89.60;;;;;;5057607;28;20501;-70
2021/04/10 10:51:11;;;;;;;2.87;1.50;;;11.70;90.00;;;;;;5059030;28;20193;-70
2021/04/10 10:53:40;;;;;;;1.93;1.83;;;11.80;89.60;;;;;;5045475;28;20483;-70
2021/04/10 10:56:12;;;;;;;2.60;1.57;;;11.80;88.70;;;;;;5045718;28;20869;-69
2021/04/10 10:58:42;;;;;;;2.45;1.73;;;11.90;89.10;;;;;;5044788;28;20581;-70
2021/04/10 11:01:27;;;;;;;2.40;1.77;;;12.00;89.20;;;;;;5045828;28;20209;-70
2021/04/10 11:03:59;;;;;;;1.50;1.40;;;12.20;88.90;;;;;;5045563;28;20459;-70
2021/04/10 11:06:28;;;;;;;3.53;1.73;;;12.40;88.00;;;;;;5044383;28;20542;-70
2021/04/10 11:08:56;;;;;;;4.43;1.97;;;12.60;87.30;;;;;;5044017;28;20479;-70
2021/04/10 11:11:31;;;;;;;2.53;1.37;;;12.70;87.90;;;;;;5045335;28;20529;-67
2021/04/10 11:13:59;;;;;;;1.50;1.10;;;12.90;87.50;;;;;;5045509;28;20861;-69
2021/04/10 11:16:26;;;;;;;1.50;1.37;;;13.00;86.90;;;;;;5036555;28;20506;-69
2021/04/10 11:18:57;;;;;;;2.70;1.30;;;13.00;85.50;;;;;;5036073;28;20483;-70
2021/04/10 11:21:27;;;;;;;1.70;1.60;;;13.00;86.20;;;;;;5044924;28;20460;-70
2021/04/10 11:24:10;;;;;;;1.77;1.20;;;13.10;85.30;;;;;;5046048;28;20455;-68
2021/04/10 11:26:44;;;;;;;1.97;1.33;;;13.20;85.30;;;;;;5045231;28;20474;-67
2021/04/10 11:29:31;;;;;;;1.83;1.17;;;13.20;85.90;;;;;;5045014;28;21030;-68
2021/04/10 11:32:12;;;;;;;1.20;1.10;;;13.10;84.40;;;;;;5043214;28;20466;-69
2021/04/10 11:34:42;;;;;;;2.37;1.60;;;13.10;84.70;;;;;;5045039;28;20493;-69
2021/04/10 11:37:11;;;;;;;1.47;1.20;;;13.10;84.50;;;;;;5045783;28;20482;-68
2021/04/10 11:39:56;;;;;;;2.17;1.97;;;13.30;84.00;;;;;;5043451;28;20483;-68
2021/04/10 11:42:28;;;;;;;1.60;1.30;;;13.60;84.30;;;;;;5044369;28;21413;-68
2021/04/10 11:44:55;;;;;;;1.43;1.23;;;14.00;83.20;;;;;;5045768;28;20844;-68
2021/04/10 11:47:25;;;;;;;1.50;1.40;;;14.40;82.70;;;;;;5043162;28;20467;-68
2021/04/10 11:49:52;;;;;;;2.20;2.00;;;14.70;81.80;;;;;;5045240;28;20478;-68
2021/04/10 11:52:24;;;;;;;2.13;1.27;;;15.10;82.40;;;;;;5045567;28;20829;-68
2021/04/10 11:55:01;;;;;;;2.23;1.27;;;15.30;81.70;;;;;;5045794;28;21514;-69
2021/04/10 11:57:29;;;;;;;1.80;1.33;;;15.20;80.30;;;;;;5045223;28;20578;-68
2021/04/10 12:00:09;;;;;;;2.07;1.80;;;15.30;80.30;;;;;;5045032;28;20459;-69
2021/04/10 12:02:37;;;;;;;3.50;2.10;;;15.40;81.10;;;;;;5045497;28;20455;-68
2021/04/10 12:05:24;;;;;;;2.10;1.80;;;15.40;79.30;;;;;;5045465;28;20466;-68
2021/04/10 12:08:15;;;;;;;5.00;2.43;;;15.40;78.70;;;;;;5044539;28;21037;-68
2021/04/10 12:10:44;;;;;;;2.07;1.50;;;15.40;78.60;;;;;;5045932;28;20463;-68
2021/04/10 12:13:11;;;;;;;1.63;1.43;;;15.20;77.70;;;;;;5044730;28;20459;-68
2021/04/10 12:15:40;;;;;;;3.30;1.40;;;15.30;78.60;;;;;;5043751;28;20491;-67
2021/04/10 12:18:09;;;;;;;1.73;1.63;;;15.40;77.30;;;;;;5033452;28;20479;-67
2021/04/10 12:20:37;;;;;;;2.50;1.20;;;15.70;77.60;;;;;;5034630;28;20460;-68
2021/04/10 12:23:05;;;;;;;2.60;1.87;;;16.10;77.80;;;;;;5034213;28;20822;-69
2021/04/10 12:25:32;;;;;;;3.30;1.87;;;16.60;77.80;;;;;;5032622;28;20477;-68
2021/04/10 12:27:59;;;;;;;1.57;1.37;;;17.80;77.10;;;;;;5032813;28;20567;-68
2021/04/10 12:30:26;;;;;;;1.67;1.27;;;19.00;72.90;;;;;;5033595;28;20513;-68
2021/04/10 12:32:52;;;;;;;2.67;1.47;;;19.70;70.70;;;;;;5035458;28;20467;-69
2021/04/10 12:35:18;;;;;;;2.40;1.20;;;21.10;70.30;;;;;;5032850;28;20445;-69
2021/04/10 12:37:45;;;;;;;2.87;1.70;;;21.90;68.10;;;;;;5033551;28;20529;-69
2021/04/10 12:40:12;;;;;;;1.57;1.03;;;22.20;63.90;;;;;;5034915;28;20882;-69
2021/04/10 12:42:39;;;;;;;1.73;1.33;;;22.00;64.10;;;;;;5032477;28;20475;-68
2021/04/10 12:45:07;;;;;;;1.50;1.37;;;21.90;61.20;;;;;;5033062;28;20444;-69
2021/04/10 12:47:34;;;;;;;1.47;1.27;;;21.80;63.40;;;;;;5024333;28;20523;-68
2021/04/10 12:50:00;;;;;;;1.60;1.47;;;22.10;60.70;;;;;;5044040;28;20482;-69
2021/04/10 12:52:27;;;;;;;2.63;1.73;;;22.00;61.20;;;;;;5044671;28;20470;-70
2021/04/10 12:54:53;;;;;;;1.60;1.10;;;22.10;61.60;;;;;;5041898;28;20495;-69
2021/04/10 12:57:19;;;;;;;1.40;1.30;;;22.00;60.00;;;;;;5043664;28;20838;-69
2021/04/10 12:59:46;;;;;;;1.87;1.20;;;22.00;59.60;;;;;;5042198;28;20467;-69